Time;durP1;ratioP1;P1;durP2;ratioP2;P2;SDS_P1;SDS_P2;PMS_P1;PMS_P2;Temp;Humidity;BMP_temperature;BMP_pressure;BME280_temperature;BME280_humidity;BME280_pressure;Samples;Min_cycle;Max_cycle;Signal;HPM_P1;HPM_P2
2022/10/21 00:01:51;;;;;;;32.70;12.85;;;11.60;99.90;;;;;;4232592;27;20101;-87
2022/10/21 00:03:51;;;;;;;29.20;13.68;;;11.60;99.90;;;;;;4232154;28;20040;-88
2022/10/21 00:05:53;;;;;;;34.53;13.98;;;11.60;99.90;;;;;;4230668;28;20047;-88
2022/10/21 00:07:55;;;;;;;32.10;13.93;;;11.90;99.90;;;;;;4233328;28;20036;-87
2022/10/21 00:09:55;;;;;;;29.75;13.85;;;11.60;99.90;;;;;;4232919;28;20043;-87
2022/10/21 00:11:56;;;;;;;28.77;13.93;;;11.50;99.90;;;;;;4231614;28;20087;-87
2022/10/21 00:13:57;;;;;;;25.13;12.70;;;11.60;99.90;;;;;;4213638;28;20063;-87
2022/10/21 00:16:09;;;;;;;31.17;13.68;;;11.60;99.90;;;;;;4233144;28;20043;-87
2022/10/21 00:18:10;;;;;;;27.52;13.10;;;11.60;99.90;;;;;;4232154;28;20050;-88
2022/10/21 00:20:11;;;;;;;36.33;13.48;;;11.70;99.90;;;;;;4232775;27;20039;-87
2022/10/21 00:22:15;;;;;;;31.45;14.20;;;11.60;99.90;;;;;;4231552;28;20039;-87
2022/10/21 00:24:15;;;;;;;31.95;13.48;;;11.10;99.90;;;;;;4214192;28;20043;-87
2022/10/21 00:26:17;;;;;;;28.33;12.52;;;11.60;99.90;;;;;;4230329;28;20058;-87
2022/10/21 00:28:21;;;;;;;29.13;13.13;;;11.60;99.90;;;;;;4232173;28;20119;-87
2022/10/21 00:30:22;;;;;;;31.95;12.15;;;11.60;99.90;;;;;;4231374;28;20054;-86
2022/10/21 00:32:23;;;;;;;28.95;13.13;;;11.50;99.90;;;;;;4231241;28;20113;-87
2022/10/21 00:34:24;;;;;;;30.83;13.02;;;11.50;99.90;;;;;;4232481;28;20084;-86
2022/10/21 00:36:26;;;;;;;28.40;13.13;;;11.50;99.90;;;;;;4230529;28;20500;-87
2022/10/21 00:38:30;;;;;;;26.98;12.43;;;11.50;99.90;;;;;;4230590;28;20094;-87
2022/10/21 00:40:31;;;;;;;28.38;12.77;;;11.60;99.90;;;;;;4232868;28;20051;-86
2022/10/21 00:42:39;;;;;;;30.17;13.38;;;11.50;99.90;;;;;;4233548;28;20469;-86
2022/10/21 00:44:41;;;;;;;31.38;13.38;;;10.90;99.90;;;;;;4234023;28;20054;-86
2022/10/21 00:46:55;;;;;;;30.48;13.25;;;11.50;99.90;;;;;;4233785;28;20163;-86
2022/10/21 00:48:58;;;;;;;27.38;13.13;;;11.50;99.90;;;;;;4232403;28;20386;-87
2022/10/21 00:51:15;;;;;;;31.95;14.38;;;11.50;99.90;;;;;;4233099;28;20489;-87
2022/10/21 00:53:17;;;;;;;29.63;13.73;;;11.50;99.90;;;;;;4231702;28;20048;-86
2022/10/21 00:55:18;;;;;;;29.17;12.25;;;11.50;99.90;;;;;;4231329;28;20051;-87
2022/10/21 00:57:20;;;;;;;29.45;12.50;;;11.50;99.90;;;;;;4231926;28;20047;-86
2022/10/21 00:59:24;;;;;;;28.08;13.27;;;11.50;99.90;;;;;;4230861;28;20053;-87
2022/10/21 01:01:25;;;;;;;29.88;13.05;;;11.50;99.90;;;;;;4232459;28;20048;-87
2022/10/21 01:03:28;;;;;;;35.05;13.32;;;11.40;99.90;;;;;;4231207;28;20508;-87
2022/10/21 01:05:30;;;;;;;29.05;14.55;;;11.40;99.90;;;;;;4232486;28;20051;-87
2022/10/21 01:07:31;;;;;;;27.98;14.05;;;11.50;99.90;;;;;;4231879;28;20074;-87
2022/10/21 01:09:31;;;;;;;34.10;13.35;;;11.50;99.90;;;;;;4232039;28;20043;-87
2022/10/21 01:11:40;;;;;;;30.02;13.60;;;11.50;99.90;;;;;;4232305;28;20044;-87
2022/10/21 01:13:58;;;;;;;33.10;13.77;;;11.40;99.90;;;;;;4231555;28;20198;-87
2022/10/21 01:16:22;;;;;;;28.77;12.13;;;11.50;99.90;;;;;;4231958;28;20040;-87
2022/10/21 01:18:37;;;;;;;36.67;13.10;;;11.50;99.90;;;;;;4229799;28;20054;-87
2022/10/21 01:20:46;;;;;;;34.22;13.93;;;11.50;99.90;;;;;;4232020;28;20043;-87
2022/10/21 01:23:01;;;;;;;31.50;12.93;;;11.50;99.90;;;;;;4231989;28;20039;-87
2022/10/21 01:25:55;;;;;;;29.42;13.23;;;11.50;99.90;;;;;;4214126;28;20094;-87
2022/10/21 01:28:10;;;;;;;29.42;11.65;;;11.50;99.90;;;;;;4198223;28;20033;-87
2022/10/21 01:30:34;;;;;;;26.85;13.38;;;11.40;99.90;;;;;;4183568;28;20040;-88
2022/10/21 01:33:10;;;;;;;29.20;11.95;;;11.40;99.90;;;;;;4191488;28;20135;-87
2022/10/21 01:35:11;;;;;;;30.20;12.80;;;11.40;99.90;;;;;;4218193;28;20040;-87
2022/10/21 01:37:44;;;;;;;28.58;12.23;;;11.50;99.90;;;;;;4218186;28;20121;-88
2022/10/21 01:39:54;;;;;;;28.60;12.75;;;11.40;99.90;;;;;;4218039;28;20055;-87
2022/10/21 01:42:05;;;;;;;31.25;13.80;;;11.40;99.90;;;;;;4200897;28;20119;-87
2022/10/21 01:44:12;;;;;;;27.20;12.50;;;11.40;99.90;;;;;;4218322;28;20077;-87
2022/10/21 01:46:21;;;;;;;27.88;12.80;;;11.40;99.90;;;;;;4227526;28;20241;-87
2022/10/21 01:48:31;;;;;;;26.35;12.07;;;11.40;99.90;;;;;;4234648;28;20074;-87
2022/10/21 01:50:37;;;;;;;24.17;13.00;;;11.40;99.90;;;;;;4233174;28;20378;-88
2022/10/21 01:52:41;;;;;;;28.40;12.45;;;11.40;99.90;;;;;;4233875;28;20048;-87
2022/10/21 01:54:44;;;;;;;28.50;12.65;;;11.40;99.90;;;;;;4233444;28;20417;-86
2022/10/21 01:56:47;;;;;;;36.55;13.65;;;11.40;99.90;;;;;;4236066;28;20043;-88
2022/10/21 01:58:48;;;;;;;32.85;12.48;;;11.40;99.90;;;;;;4232247;28;20078;-86
2022/10/21 02:00:50;;;;;;;34.92;12.60;;;11.40;99.90;;;;;;4233771;28;20035;-87
2022/10/21 02:02:51;;;;;;;29.90;12.88;;;11.40;99.90;;;;;;4233721;28;20039;-87
2022/10/21 02:04:54;;;;;;;23.95;12.13;;;11.40;99.90;;;;;;4233320;28;20058;-88
2022/10/21 02:06:56;;;;;;;28.98;12.98;;;11.40;99.90;;;;;;4233690;28;20051;-87
2022/10/21 02:08:57;;;;;;;26.83;13.68;;;11.30;99.90;;;;;;4233962;28;20047;-87
2022/10/21 02:11:02;;;;;;;34.47;12.50;;;11.40;99.90;;;;;;4232841;28;20633;-87
2022/10/21 02:13:07;;;;;;;32.75;11.70;;;11.40;99.90;;;;;;4228271;28;20040;-87
2022/10/21 02:15:12;;;;;;;27.13;11.88;;;11.40;99.90;;;;;;4228011;28;20055;-87
2022/10/21 02:17:16;;;;;;;30.55;12.30;;;12.60;99.90;;;;;;4216891;28;20063;-87
2022/10/21 02:19:20;;;;;;;32.70;13.02;;;11.40;99.90;;;;;;4216654;28;20051;-87
2022/10/21 02:21:25;;;;;;;28.48;13.43;;;11.40;99.90;;;;;;4219794;28;20035;-87
2022/10/21 02:23:45;;;;;;;28.60;12.48;;;11.40;99.90;;;;;;4224704;28;20489;-87
2022/10/21 02:25:47;;;;;;;;;;;11.40;99.90;;;;;;4218524;28;20036;-88
2022/10/21 02:27:48;;;;;;;31.60;11.10;;;11.40;99.90;;;;;;4218314;28;19983;-86
2022/10/21 02:29:56;;;;;;;31.60;12.65;;;11.40;99.90;;;;;;4221089;28;20036;-86
2022/10/21 02:31:57;;;;;;;30.38;13.20;;;11.40;99.90;;;;;;4219734;28;20119;-87
2022/10/21 02:34:12;;;;;;;31.75;12.63;;;11.40;99.90;;;;;;4219167;28;20392;-86
2022/10/21 02:36:21;;;;;;;28.25;12.40;;;11.40;99.90;;;;;;4218830;28;20048;-86
2022/10/21 02:38:46;;;;;;;31.73;13.38;;;11.50;99.90;;;;;;4218146;28;20047;-86
2022/10/21 02:41:06;;;;;;;36.30;14.00;;;11.50;99.90;;;;;;4218285;28;20401;-86
2022/10/21 02:43:18;;;;;;;33.05;12.00;;;11.50;99.90;;;;;;4219478;28;20090;-87
2022/10/21 02:45:21;;;;;;;28.10;13.45;;;11.50;99.90;;;;;;4216815;28;20541;-85
2022/10/21 02:47:25;;;;;;;28.58;12.57;;;11.50;99.90;;;;;;4217948;28;20040;-87
2022/10/21 02:49:27;;;;;;;31.10;12.55;;;11.50;99.90;;;;;;4216442;28;20525;-87
2022/10/21 02:51:27;;;;;;;30.13;12.73;;;11.50;99.90;;;;;;4218031;28;20100;-87
2022/10/21 02:53:28;;;;;;;33.55;12.25;;;11.50;99.90;;;;;;4216972;28;20386;-88
2022/10/21 02:55:30;;;;;;;32.85;12.85;;;11.60;99.90;;;;;;4217446;28;20086;-87
2022/10/21 02:57:30;;;;;;;31.65;12.80;;;11.60;99.90;;;;;;4217730;28;20052;-87
2022/10/21 02:59:31;;;;;;;29.00;12.77;;;11.60;99.90;;;;;;4199321;28;20052;-87
2022/10/21 03:01:32;;;;;;;28.30;12.80;;;11.60;99.90;;;;;;4216622;28;20047;-87
2022/10/21 03:03:32;;;;;;;35.45;13.60;;;11.60;99.90;;;;;;4199168;28;20055;-87
2022/10/21 03:05:33;;;;;;;35.70;12.93;;;11.60;99.90;;;;;;4217787;28;20040;-88
2022/10/21 03:07:34;;;;;;;32.38;14.13;;;11.60;99.90;;;;;;4216968;28;20063;-88
2022/10/21 03:09:35;;;;;;;27.65;12.25;;;11.60;99.90;;;;;;4217218;28;20458;-88
2022/10/21 03:11:36;;;;;;;29.85;13.13;;;11.60;99.90;;;;;;4217512;28;20039;-88
2022/10/21 03:13:37;;;;;;;27.15;12.23;;;11.70;99.90;;;;;;4215525;28;20153;-87
2022/10/21 03:15:39;;;;;;;31.55;12.60;;;11.70;99.90;;;;;;4216276;28;20544;-88
2022/10/21 03:17:39;;;;;;;29.50;12.48;;;11.70;99.90;;;;;;4215961;28;20517;-88
2022/10/21 03:19:41;;;;;;;28.83;12.73;;;11.70;99.90;;;;;;4215555;28;20058;-88
2022/10/21 03:21:43;;;;;;;28.55;12.30;;;11.70;99.90;;;;;;4233501;28;20557;-88
2022/10/21 03:23:43;;;;;;;33.13;12.63;;;11.70;99.90;;;;;;4217018;28;20478;-88
2022/10/21 03:25:44;;;;;;;27.65;11.93;;;11.70;99.90;;;;;;4217117;28;20097;-88
2022/10/21 03:27:49;;;;;;;31.65;12.90;;;11.70;99.90;;;;;;4216234;28;20031;-88
2022/10/21 03:29:50;;;;;;;27.85;12.15;;;11.70;99.90;;;;;;4215881;28;20060;-88
2022/10/21 03:31:51;;;;;;;29.60;13.05;;;11.70;99.90;;;;;;4215201;28;20444;-88
2022/10/21 03:33:51;;;;;;;28.77;11.77;;;11.80;99.90;;;;;;4215272;28;20047;-88
2022/10/21 03:35:52;;;;;;;30.10;11.07;;;11.70;99.90;;;;;;4216453;28;20410;-88
2022/10/21 03:37:53;;;;;;;30.88;12.40;;;11.80;99.90;;;;;;4216372;28;20490;-88
2022/10/21 03:39:54;;;;;;;32.97;12.15;;;11.80;99.90;;;;;;4216331;28;20054;-89
2022/10/21 03:41:55;;;;;;;33.25;11.57;;;11.70;99.90;;;;;;4216423;28;20115;-88
2022/10/21 03:43:56;;;;;;;29.35;12.50;;;11.70;99.90;;;;;;4216470;28;20131;-88
2022/10/21 03:45:57;;;;;;;28.60;11.73;;;11.70;99.90;;;;;;4214344;28;20040;-88
2022/10/21 03:47:57;;;;;;;34.63;11.90;;;11.70;99.90;;;;;;4214107;28;20533;-88
2022/10/21 03:49:58;;;;;;;26.25;11.32;;;11.80;99.90;;;;;;4230683;28;20493;-88
2022/10/21 03:52:00;;;;;;;21.65;9.15;;;11.70;99.90;;;;;;4215457;28;20044;-88
2022/10/21 03:54:00;;;;;;;20.55;9.10;;;11.70;99.90;;;;;;4214715;28;20485;-88
2022/10/21 03:56:04;;;;;;;23.15;11.75;;;11.70;99.90;;;;;;4214244;28;20132;-88
2022/10/21 03:58:05;;;;;;;25.52;11.18;;;11.70;99.90;;;;;;4216201;28;20058;-87
2022/10/21 04:00:06;;;;;;;27.15;11.20;;;11.70;99.90;;;;;;4231205;28;20047;-88
2022/10/21 04:02:08;;;;;;;18.38;9.80;;;11.70;99.90;;;;;;4219801;28;20043;-88
2022/10/21 04:04:09;;;;;;;26.02;11.02;;;11.70;99.90;;;;;;4231259;28;20092;-87
2022/10/21 04:06:09;;;;;;;25.35;12.10;;;11.70;99.90;;;;;;4231791;28;20080;-88
2022/10/21 04:08:10;;;;;;;30.83;11.95;;;11.70;99.90;;;;;;4233233;28;20123;-87
2022/10/21 04:10:11;;;;;;;25.30;11.45;;;10.70;99.90;;;;;;4231699;28;20050;-88
2022/10/21 04:12:12;;;;;;;22.63;10.00;;;11.70;99.90;;;;;;4232756;28;20039;-88
2022/10/21 04:14:12;;;;;;;25.48;11.07;;;11.70;99.90;;;;;;4232278;28;20152;-87
2022/10/21 04:16:17;;;;;;;23.48;11.23;;;11.70;99.90;;;;;;4233385;28;20126;-87
2022/10/21 04:18:18;;;;;;;26.85;11.85;;;11.80;99.90;;;;;;4214026;28;20039;-87
2022/10/21 04:20:19;;;;;;;25.40;11.55;;;11.80;99.90;;;;;;4232725;28;20104;-87
2022/10/21 04:22:19;;;;;;;26.73;12.30;;;11.80;99.90;;;;;;4233097;28;20540;-88
2022/10/21 04:24:20;;;;;;;23.10;10.25;;;11.80;99.90;;;;;;4232458;28;20496;-87
2022/10/21 04:26:21;;;;;;;31.05;12.02;;;11.80;99.90;;;;;;4229746;28;20063;-87
2022/10/21 04:28:21;;;;;;;30.73;12.57;;;11.80;99.90;;;;;;4230944;28;20070;-88
2022/10/21 04:30:22;;;;;;;23.65;11.25;;;11.80;99.90;;;;;;4231476;28;20130;-87
2022/10/21 04:32:23;;;;;;;24.60;11.82;;;11.80;99.90;;;;;;4231244;28;20065;-87
2022/10/21 04:34:24;;;;;;;32.28;11.60;;;11.80;99.90;;;;;;4231528;28;20053;-87
2022/10/21 04:36:24;;;;;;;24.90;11.15;;;11.80;99.90;;;;;;4230438;28;20525;-87
2022/10/21 04:38:27;;;;;;;25.98;10.68;;;11.80;99.90;;;;;;4229567;28;20107;-87
2022/10/21 04:40:27;;;;;;;25.75;11.63;;;11.80;99.90;;;;;;4230113;28;20050;-87
2022/10/21 04:42:28;;;;;;;25.00;11.55;;;11.80;99.90;;;;;;4218524;28;20505;-87
2022/10/21 04:44:29;;;;;;;24.02;11.82;;;11.80;99.90;;;;;;4215031;28;20513;-87
2022/10/21 04:46:29;;;;;;;29.05;11.65;;;11.80;99.90;;;;;;4227605;28;20047;-87
2022/10/21 04:48:30;;;;;;;33.78;12.43;;;11.80;99.90;;;;;;4231104;28;20074;-87
2022/10/21 04:50:31;;;;;;;33.03;12.98;;;11.80;99.90;;;;;;4232194;28;20043;-87
2022/10/21 04:52:32;;;;;;;28.08;11.77;;;11.80;99.90;;;;;;4232366;28;20039;-87
2022/10/21 04:54:32;;;;;;;28.38;11.80;;;11.90;99.90;;;;;;4232959;28;20035;-87
2022/10/21 04:56:33;;;;;;;30.85;12.77;;;11.90;99.90;;;;;;4232050;28;20114;-86
2022/10/21 04:58:34;;;;;;;31.27;12.70;;;11.90;99.90;;;;;;4223336;28;20123;-88
2022/10/21 05:00:35;;;;;;;30.15;12.23;;;11.90;99.90;;;;;;4215219;28;20486;-87
2022/10/21 05:02:35;;;;;;;30.55;11.63;;;11.90;99.90;;;;;;4215350;28;20065;-87
2022/10/21 05:04:38;;;;;;;29.48;13.18;;;12.00;99.90;;;;;;4215063;28;20520;-87
2022/10/21 05:06:39;;;;;;;36.15;13.02;;;12.00;99.90;;;;;;4214097;28;20040;-88
2022/10/21 05:08:39;;;;;;;32.20;13.50;;;12.00;99.90;;;;;;4215280;28;20101;-88
2022/10/21 05:10:40;;;;;;;32.70;12.32;;;12.10;99.90;;;;;;4215208;28;20044;-88
2022/10/21 05:12:41;;;;;;;36.33;13.65;;;12.10;99.90;;;;;;4215178;28;20398;-90
2022/10/21 05:14:41;;;;;;;39.72;13.63;;;12.10;99.90;;;;;;4215090;28;20140;-88
2022/10/21 05:16:42;;;;;;;39.13;13.43;;;12.20;99.90;;;;;;4214638;28;20052;-89
2022/10/21 05:18:43;;;;;;;38.42;14.20;;;12.20;99.90;;;;;;4215288;28;20029;-88
2022/10/21 05:20:50;;;;;;;40.38;13.73;;;12.20;99.90;;;;;;4214979;28;20040;-89
2022/10/21 05:22:52;;;;;;;46.63;14.88;;;12.20;99.90;;;;;;4215486;28;20044;-88
2022/10/21 05:24:52;;;;;;;42.67;14.40;;;12.30;99.90;;;;;;4227224;28;20039;-88
2022/10/21 05:26:53;;;;;;;51.05;14.70;;;12.30;99.90;;;;;;4232734;28;20080;-88
2022/10/21 05:28:56;;;;;;;50.42;14.68;;;12.30;99.90;;;;;;4232034;28;20040;-88
2022/10/21 05:30:56;;;;;;;60.35;14.93;;;12.30;99.90;;;;;;4232335;28;20047;-88
2022/10/21 05:32:58;;;;;;;58.17;14.82;;;12.30;99.90;;;;;;4231935;28;20058;-88
2022/10/21 05:35:00;;;;;;;70.68;17.17;;;12.30;99.90;;;;;;4232046;28;20466;-88
2022/10/21 05:37:01;;;;;;;68.65;15.90;;;12.30;99.90;;;;;;4232240;28;20478;-89
2022/10/21 05:39:01;;;;;;;64.32;15.48;;;12.30;99.90;;;;;;4231922;28;20123;-89
2022/10/21 05:41:03;;;;;;;93.97;15.95;;;12.40;99.90;;;;;;4231539;28;20048;-88
2022/10/21 05:43:06;;;;;;;89.95;17.20;;;12.30;99.90;;;;;;4215340;28;20040;-87
2022/10/21 05:45:07;;;;;;;95.63;16.20;;;12.30;99.90;;;;;;4228380;28;20489;-86
2022/10/21 05:47:09;;;;;;;111.05;17.33;;;12.30;99.90;;;;;;4235536;28;20127;-85
2022/10/21 05:49:09;;;;;;;117.18;16.50;;;12.30;99.90;;;;;;4232263;28;20065;-85
2022/10/21 05:51:11;;;;;;;111.90;16.30;;;12.20;99.90;;;;;;4215400;28;20070;-85
2022/10/21 05:53:13;;;;;;;120.40;16.45;;;12.20;99.90;;;;;;4213740;28;20044;-85
2022/10/21 05:55:14;;;;;;;113.72;15.82;;;12.20;99.90;;;;;;4225620;28;20409;-86
2022/10/21 05:57:14;;;;;;;110.25;15.63;;;12.20;99.90;;;;;;4230549;28;20039;-85
2022/10/21 05:59:15;;;;;;;95.88;17.00;;;12.10;99.90;;;;;;4231500;28;20054;-85
2022/10/21 06:01:17;;;;;;;77.50;15.05;;;12.10;99.90;;;;;;4212783;28;20055;-86
2022/10/21 06:03:18;;;;;;;106.20;15.80;;;12.20;99.90;;;;;;4229540;28;20043;-86
2022/10/21 06:05:19;;;;;;;78.30;15.27;;;12.10;99.90;;;;;;4225565;28;20449;-86
2022/10/21 06:07:20;;;;;;;73.40;15.50;;;12.10;99.90;;;;;;4228575;28;20081;-84
2022/10/21 06:09:22;;;;;;;59.35;14.43;;;12.10;99.90;;;;;;4220094;28;20040;-84
2022/10/21 06:11:23;;;;;;;57.58;16.65;;;12.10;99.90;;;;;;4215973;28;20052;-85
2022/10/21 06:13:23;;;;;;;55.92;15.60;;;12.10;99.90;;;;;;4227753;28;20588;-85
2022/10/21 06:15:24;;;;;;;47.72;15.88;;;12.10;99.90;;;;;;4234566;28;20095;-85
2022/10/21 06:17:25;;;;;;;49.53;15.80;;;12.10;99.90;;;;;;4234209;28;20550;-85
2022/10/21 06:19:27;;;;;;;63.72;16.95;;;12.10;99.90;;;;;;4233709;28;20044;-85
2022/10/21 06:21:33;;;;;;;55.88;16.17;;;12.00;99.90;;;;;;4235471;28;20040;-85
2022/10/21 06:23:34;;;;;;;51.03;15.85;;;12.10;99.90;;;;;;4237342;28;20043;-86
2022/10/21 06:25:35;;;;;;;59.83;17.10;;;12.10;99.90;;;;;;4223374;28;20588;-85
2022/10/21 06:27:36;;;;;;;62.10;17.02;;;12.10;99.90;;;;;;4217635;28;20063;-85
2022/10/21 06:29:37;;;;;;;61.40;16.42;;;12.10;99.90;;;;;;4217555;28;20083;-85
2022/10/21 06:31:37;;;;;;;53.63;17.00;;;12.10;99.90;;;;;;4217224;28;20036;-86
2022/10/21 06:33:38;;;;;;;45.58;15.57;;;12.10;99.90;;;;;;4218524;28;20113;-84
2022/10/21 06:35:40;;;;;;;44.65;15.13;;;12.10;99.90;;;;;;4218720;28;20055;-84
2022/10/21 06:37:41;;;;;;;50.03;15.55;;;12.10;99.90;;;;;;4218513;28;20051;-87
2022/10/21 06:39:41;;;;;;;52.70;15.25;;;12.00;99.90;;;;;;4218139;28;20036;-87
2022/10/21 06:41:42;;;;;;;45.78;16.58;;;12.00;99.90;;;;;;4218677;28;20048;-86
2022/10/21 06:43:43;;;;;;;59.50;15.35;;;12.00;99.90;;;;;;4216541;28;20051;-86
2022/10/21 06:45:44;;;;;;;43.97;14.73;;;12.00;99.90;;;;;;4216780;28;20481;-86
2022/10/21 06:47:45;;;;;;;47.25;15.05;;;11.70;99.90;;;;;;4216465;28;20512;-87
2022/10/21 06:49:46;;;;;;;52.40;15.70;;;12.00;99.90;;;;;;4221421;28;20040;-87
2022/10/21 06:51:47;;;;;;;49.97;16.20;;;12.10;99.90;;;;;;4216934;28;20520;-87
2022/10/21 06:53:56;;;;;;;46.90;16.67;;;12.10;99.90;;;;;;4217573;28;20431;-87
2022/10/21 06:56:04;;;;;;;;;;;12.00;99.90;;;;;;4230376;28;20539;-86
2022/10/21 06:58:05;;;;;;;43.50;14.30;;;12.10;99.90;;;;;;4216451;28;20018;-86
2022/10/21 07:00:06;;;;;;;46.28;15.15;;;12.00;99.90;;;;;;4221557;28;20048;-86
2022/10/21 07:02:08;;;;;;;43.15;13.90;;;12.00;99.90;;;;;;4228838;28;20394;-87
2022/10/21 07:04:09;;;;;;;36.70;14.63;;;12.10;99.90;;;;;;4198591;28;20049;-86
2022/10/21 07:06:10;;;;;;;43.13;13.98;;;12.10;99.90;;;;;;4216153;28;20099;-86
2022/10/21 07:08:11;;;;;;;41.95;14.10;;;12.20;99.90;;;;;;4218917;28;20538;-86
2022/10/21 07:10:12;;;;;;;50.78;14.48;;;12.10;99.90;;;;;;4215916;28;20115;-86
2022/10/21 07:12:14;;;;;;;38.20;14.00;;;12.10;99.90;;;;;;4197368;28;20052;-87
2022/10/21 07:14:15;;;;;;;40.53;13.77;;;12.10;99.90;;;;;;4215680;28;20113;-86
2022/10/21 07:16:28;;;;;;;36.88;13.95;;;12.10;99.90;;;;;;4214905;28;20100;-86
2022/10/21 07:18:31;;;;;;;37.55;13.13;;;12.20;99.90;;;;;;4216806;28;20140;-86
2022/10/21 07:20:33;;;;;;;49.05;15.23;;;12.20;99.90;;;;;;4215145;28;20055;-86
2022/10/21 07:22:35;;;;;;;37.15;14.05;;;12.20;99.90;;;;;;4199070;28;20051;-87
2022/10/21 07:24:37;;;;;;;41.25;14.30;;;12.30;99.90;;;;;;4223062;28;20500;-86
2022/10/21 07:26:38;;;;;;;36.42;14.35;;;12.40;99.90;;;;;;4233709;28;20035;-87
2022/10/21 07:28:41;;;;;;;40.72;13.88;;;12.30;99.90;;;;;;4232364;28;20044;-87
2022/10/21 07:30:43;;;;;;;34.85;12.93;;;12.40;99.90;;;;;;4230350;28;20481;-87
2022/10/21 07:32:43;;;;;;;32.47;13.18;;;12.40;99.90;;;;;;4227030;28;20044;-88
2022/10/21 07:34:44;;;;;;;28.90;11.88;;;12.40;99.90;;;;;;4235177;28;20400;-87
2022/10/21 07:36:51;;;;;;;38.10;13.13;;;12.40;99.90;;;;;;4222818;28;20111;-88
2022/10/21 07:38:54;;;;;;;29.10;12.60;;;12.40;99.90;;;;;;4217798;28;20039;-88
2022/10/21 07:40:56;;;;;;;33.63;12.70;;;12.40;99.90;;;;;;4199064;28;20123;-88
2022/10/21 07:42:58;;;;;;;30.02;12.00;;;12.30;99.90;;;;;;4228406;28;20086;-88
2022/10/21 07:45:00;;;;;;;29.05;13.05;;;12.30;99.90;;;;;;4217117;28;20226;-90
2022/10/21 07:47:01;;;;;;;30.73;13.45;;;12.30;99.90;;;;;;4235478;28;20061;-88
2022/10/21 07:49:02;;;;;;;31.77;12.65;;;12.30;99.90;;;;;;4232167;28;20146;-89
2022/10/21 07:51:10;;;;;;;31.17;14.07;;;12.30;99.90;;;;;;4232371;28;20456;-88
2022/10/21 07:53:11;;;;;;;33.15;12.75;;;12.30;99.90;;;;;;4232247;28;20071;-88
2022/10/21 07:55:12;;;;;;;30.27;12.82;;;12.30;99.90;;;;;;4224861;28;20526;-87
2022/10/21 07:57:13;;;;;;;30.52;12.85;;;12.40;99.90;;;;;;4216359;28;20044;-87
2022/10/21 07:59:15;;;;;;;28.85;13.35;;;12.40;99.90;;;;;;4218871;28;20508;-86
2022/10/21 08:01:17;;;;;;;28.50;12.57;;;12.40;99.90;;;;;;4217733;28;20490;-87
2022/10/21 08:03:19;;;;;;;34.05;13.07;;;12.40;99.90;;;;;;4216905;28;20086;-87
2022/10/21 08:05:21;;;;;;;27.70;11.55;;;12.20;99.90;;;;;;4219843;28;20163;-88
2022/10/21 08:07:22;;;;;;;26.52;11.68;;;12.50;99.90;;;;;;4219864;28;20046;-87
2022/10/21 08:09:25;;;;;;;24.70;11.25;;;12.50;99.90;;;;;;4219660;28;20067;-88
2022/10/21 08:11:28;;;;;;;26.00;11.30;;;12.50;99.90;;;;;;4221283;28;20044;-89
2022/10/21 08:13:30;;;;;;;27.80;11.95;;;12.50;99.90;;;;;;4217110;28;20047;-89
2022/10/21 08:15:31;;;;;;;27.83;12.15;;;12.60;99.90;;;;;;4201614;28;20358;-90
2022/10/21 08:17:32;;;;;;;29.27;12.77;;;12.60;99.90;;;;;;4198238;28;20075;-89
2022/10/21 08:19:33;;;;;;;27.52;11.80;;;12.70;99.90;;;;;;4215451;28;20494;-89
2022/10/21 08:21:35;;;;;;;29.35;12.60;;;12.70;99.90;;;;;;4201468;28;20426;-88
2022/10/21 08:23:36;;;;;;;24.20;11.70;;;12.80;99.90;;;;;;4215747;28;20048;-90
2022/10/21 08:25:49;;;;;;;23.42;11.82;;;12.60;99.90;;;;;;4214577;28;20149;-90
2022/10/21 08:27:52;;;;;;;21.25;11.40;;;13.20;99.90;;;;;;4225130;28;20051;-90
2022/10/21 08:29:54;;;;;;;20.48;11.88;;;13.30;99.90;;;;;;4216267;28;20050;-90
2022/10/21 08:31:55;;;;;;;25.60;11.27;;;13.50;99.90;;;;;;4233142;28;20484;-89
2022/10/21 08:33:57;;;;;;;19.42;10.82;;;13.60;99.90;;;;;;4248688;27;20042;-90
2022/10/21 08:36:03;;;;;;;25.45;10.57;;;13.70;99.90;;;;;;4232635;28;20477;-90
2022/10/21 08:38:04;;;;;;;27.02;10.60;;;13.80;99.90;;;;;;4210909;28;20045;-90
2022/10/21 08:40:06;;;;;;;20.85;10.40;;;13.90;99.90;;;;;;4226697;28;20090;-90
2022/10/21 08:42:16;;;;;;;20.90;9.45;;;14.00;99.90;;;;;;4198110;28;20048;-89
2022/10/21 08:44:30;;;;;;;19.38;10.27;;;14.00;99.90;;;;;;4208701;28;20138;-89
2022/10/21 08:46:36;;;;;;;24.17;11.30;;;13.90;99.90;;;;;;4230662;28;20043;-91
2022/10/21 08:49:17;;;;;;;20.38;10.15;;;13.90;99.90;;;;;;4231878;28;20039;-90
2022/10/21 08:51:35;;;;;;;24.77;11.20;;;13.90;99.90;;;;;;4228874;28;20241;-91
2022/10/21 08:53:40;;;;;;;19.52;10.10;;;13.90;99.90;;;;;;4233369;28;20085;-90
2022/10/21 08:55:43;;;;;;;21.45;10.93;;;13.90;99.90;;;;;;4233668;28;20082;-89
2022/10/21 08:57:46;;;;;;;20.23;10.25;;;13.90;99.90;;;;;;4215233;28;20075;-90
2022/10/21 08:59:48;;;;;;;24.30;10.23;;;13.90;99.90;;;;;;4234292;28;20040;-89
2022/10/21 09:02:17;;;;;;;20.08;9.90;;;14.00;99.90;;;;;;4237847;28;20048;-90
2022/10/21 09:04:47;;;;;;;19.50;9.35;;;14.00;99.90;;;;;;4239810;28;20063;-89
2022/10/21 09:07:02;;;;;;;18.83;10.32;;;14.10;99.90;;;;;;4237953;28;20039;-89
2022/10/21 09:09:22;;;;;;;18.88;9.95;;;14.10;99.90;;;;;;4238858;28;20534;-89
2022/10/21 09:12:04;;;;;;;20.23;10.60;;;14.10;99.90;;;;;;4250945;28;20051;-89
2022/10/21 09:14:27;;;;;;;21.67;10.77;;;14.20;99.90;;;;;;4210570;28;20559;-87
2022/10/21 09:17:00;;;;;;;19.85;10.02;;;14.30;99.90;;;;;;4229516;28;20055;-88
2022/10/21 09:19:32;;;;;;;19.42;9.70;;;14.40;99.90;;;;;;4213798;28;20044;-87
2022/10/21 09:22:07;;;;;;;20.63;9.35;;;14.50;99.90;;;;;;4231731;28;20048;-88
2022/10/21 09:24:38;;;;;;;20.38;9.50;;;14.70;99.90;;;;;;4215481;28;20048;-88
2022/10/21 09:26:41;;;;;;;24.88;11.00;;;14.80;99.90;;;;;;4207506;28;20493;-85
2022/10/21 09:28:43;;;;;;;21.98;9.50;;;14.90;99.90;;;;;;4217910;28;20047;-87
2022/10/21 09:30:46;;;;;;;19.52;9.75;;;15.20;99.90;;;;;;4215273;28;20091;-86
2022/10/21 09:32:49;;;;;;;23.73;9.50;;;15.50;99.90;;;;;;4229317;28;20046;-87
2022/10/21 09:35:01;;;;;;;18.88;8.30;;;15.80;99.90;;;;;;4232120;28;20047;-87
2022/10/21 09:37:06;;;;;;;16.63;9.15;;;16.10;99.90;;;;;;4232893;28;20098;-87
2022/10/21 09:39:14;;;;;;;17.13;9.27;;;16.40;99.90;;;;;;4232028;28;20050;-87
2022/10/21 09:41:20;;;;;;;14.85;8.93;;;16.70;99.90;;;;;;4232038;28;20052;-88
2022/10/21 09:43:23;;;;;;;16.55;8.82;;;16.70;99.90;;;;;;4230677;28;20190;-87
2022/10/21 09:45:38;;;;;;;16.88;9.63;;;16.80;99.90;;;;;;4231527;28;20051;-87
2022/10/21 09:47:39;;;;;;;17.58;8.02;;;16.70;99.90;;;;;;4232749;28;20070;-87
2022/10/21 09:50:04;;;;;;;19.45;8.60;;;16.60;99.90;;;;;;4234822;28;20044;-88
2022/10/21 09:52:06;;;;;;;17.58;8.75;;;16.50;99.90;;;;;;4233988;28;20052;-87
2022/10/21 09:54:18;;;;;;;15.20;7.57;;;16.60;99.90;;;;;;4234286;28;20078;-87
2022/10/21 09:56:24;;;;;;;17.17;8.45;;;16.70;99.90;;;;;;4233916;28;20047;-89
2022/10/21 09:58:28;;;;;;;19.58;7.55;;;16.90;99.90;;;;;;4216304;28;20121;-89
2022/10/21 10:00:58;;;;;;;16.35;7.57;;;17.10;99.90;;;;;;4233765;28;20040;-86
2022/10/21 10:02:59;;;;;;;13.90;7.38;;;17.20;99.90;;;;;;4206114;28;20139;-86
2022/10/21 10:05:00;;;;;;;14.88;7.22;;;17.20;99.90;;;;;;4225953;28;20044;-87
2022/10/21 10:07:18;;;;;;;15.00;7.10;;;17.20;99.90;;;;;;4233474;28;20048;-87
2022/10/21 10:09:26;;;;;;;13.32;6.18;;;17.20;99.90;;;;;;4235041;28;20035;-87
2022/10/21 10:11:27;;;;;;;12.45;6.88;;;17.30;99.90;;;;;;4234001;28;20119;-87
2022/10/21 10:13:30;;;;;;;11.85;7.00;;;17.30;99.90;;;;;;4232521;28;20100;-87
2022/10/21 10:15:36;;;;;;;13.13;6.53;;;17.40;99.90;;;;;;4229254;28;20078;-87
2022/10/21 10:17:38;;;;;;;16.20;6.50;;;17.40;99.90;;;;;;4223338;28;20161;-88
2022/10/21 10:19:39;;;;;;;11.95;6.88;;;17.60;99.90;;;;;;4217077;28;20043;-88
2022/10/21 10:21:40;;;;;;;12.25;6.50;;;17.80;99.90;;;;;;4216941;28;20371;-88
2022/10/21 10:23:54;;;;;;;11.75;5.95;;;17.90;99.90;;;;;;4217792;28;20075;-88
2022/10/21 10:25:55;;;;;;;12.43;5.38;;;18.00;99.90;;;;;;4217050;28;20055;-89
2022/10/21 10:28:03;;;;;;;8.70;5.68;;;17.90;99.90;;;;;;4200575;28;20401;-89
2022/10/21 10:30:05;;;;;;;12.75;6.20;;;17.90;99.90;;;;;;4219225;28;20052;-89
2022/10/21 10:32:12;;;;;;;10.77;6.13;;;17.80;99.90;;;;;;4216746;28;20036;-88
2022/10/21 10:34:47;;;;;;;12.95;6.25;;;17.60;99.90;;;;;;4230431;28;20048;-88